sensor_id;sensor_type;location;lat;lon;timestamp;P1;durP1;ratioP1;P2;durP2;ratioP2
69008;SDS011;56065;52.472;13.380;2022-11-27T00:01:42;22.57;;;8.80;;
69008;SDS011;56065;52.472;13.380;2022-11-27T00:04:08;22.87;;;8.50;;
69008;SDS011;56065;52.472;13.380;2022-11-27T00:06:35;22.13;;;8.60;;
69008;SDS011;56065;52.472;13.380;2022-11-27T00:09:03;19.75;;;8.02;;
69008;SDS011;56065;52.472;13.380;2022-11-27T00:11:31;23.50;;;8.85;;
69008;SDS011;56065;52.472;13.380;2022-11-27T00:13:58;25.73;;;9.07;;
69008;SDS011;56065;52.472;13.380;2022-11-27T00:16:24;23.53;;;8.47;;
69008;SDS011;56065;52.472;13.380;2022-11-27T00:18:51;21.13;;;7.85;;
69008;SDS011;56065;52.472;13.380;2022-11-27T00:21:35;25.50;;;8.55;;
69008;SDS011;56065;52.472;13.380;2022-11-27T00:24:01;23.90;;;7.80;;
69008;SDS011;56065;52.472;13.380;2022-11-27T00:26:29;30.73;;;8.85;;
69008;SDS011;56065;52.472;13.380;2022-11-27T00:28:55;25.97;;;8.73;;
69008;SDS011;56065;52.472;13.380;2022-11-27T00:31:28;20.85;;;8.40;;
69008;SDS011;56065;52.472;13.380;2022-11-27T00:33:55;23.17;;;9.30;;
69008;SDS011;56065;52.472;13.380;2022-11-27T00:36:23;22.73;;;8.37;;
69008;SDS011;56065;52.472;13.380;2022-11-27T00:38:49;25.50;;;8.52;;
69008;SDS011;56065;52.472;13.380;2022-11-27T00:41:22;26.33;;;7.97;;
69008;SDS011;56065;52.472;13.380;2022-11-27T00:43:49;26.10;;;8.18;;
69008;SDS011;56065;52.472;13.380;2022-11-27T00:46:15;22.27;;;9.23;;
69008;SDS011;56065;52.472;13.380;2022-11-27T00:48:41;25.30;;;9.13;;
69008;SDS011;56065;52.472;13.380;2022-11-27T00:51:10;28.20;;;8.20;;
69008;SDS011;56065;52.472;13.380;2022-11-27T00:53:37;19.17;;;7.97;;
69008;SDS011;56065;52.472;13.380;2022-11-27T00:56:02;23.25;;;8.02;;
69008;SDS011;56065;52.472;13.380;2022-11-27T00:58:28;21.57;;;8.27;;
69008;SDS011;56065;52.472;13.380;2022-11-27T01:01:02;24.30;;;8.73;;
69008;SDS011;56065;52.472;13.380;2022-11-27T01:03:29;20.90;;;7.80;;
69008;SDS011;56065;52.472;13.380;2022-11-27T01:05:55;22.93;;;8.00;;
69008;SDS011;56065;52.472;13.380;2022-11-27T01:08:21;25.20;;;9.65;;
69008;SDS011;56065;52.472;13.380;2022-11-27T01:10:50;24.65;;;9.73;;
69008;SDS011;56065;52.472;13.380;2022-11-27T01:13:24;19.08;;;7.60;;
69008;SDS011;56065;52.472;13.380;2022-11-27T01:18:33;32.17;;;11.45;;
69008;SDS011;56065;52.472;13.380;2022-11-27T01:21:00;24.17;;;7.88;;
69008;SDS011;56065;52.472;13.380;2022-11-27T01:23:25;23.30;;;7.67;;
69008;SDS011;56065;52.472;13.380;2022-11-27T01:25:50;20.47;;;7.77;;
69008;SDS011;56065;52.472;13.380;2022-11-27T01:28:17;21.63;;;7.90;;
69008;SDS011;56065;52.472;13.380;2022-11-27T01:30:44;23.50;;;7.65;;
69008;SDS011;56065;52.472;13.380;2022-11-27T01:33:09;18.63;;;7.13;;
69008;SDS011;56065;52.472;13.380;2022-11-27T01:35:34;21.10;;;7.63;;
69008;SDS011;56065;52.472;13.380;2022-11-27T01:38:00;24.75;;;7.72;;
69008;SDS011;56065;52.472;13.380;2022-11-27T01:40:25;22.50;;;6.93;;
69008;SDS011;56065;52.472;13.380;2022-11-27T01:42:51;22.73;;;8.40;;
69008;SDS011;56065;52.472;13.380;2022-11-27T01:45:17;17.13;;;6.60;;
69008;SDS011;56065;52.472;13.380;2022-11-27T01:47:51;23.67;;;7.22;;
69008;SDS011;56065;52.472;13.380;2022-11-27T01:50:36;22.13;;;8.15;;
69008;SDS011;56065;52.472;13.380;2022-11-27T01:53:16;20.52;;;7.18;;
69008;SDS011;56065;52.472;13.380;2022-11-27T01:55:44;15.67;;;6.53;;
69008;SDS011;56065;52.472;13.380;2022-11-27T01:58:14;20.10;;;7.78;;
69008;SDS011;56065;52.472;13.380;2022-11-27T02:00:44;21.27;;;7.82;;
69008;SDS011;56065;52.472;13.380;2022-11-27T02:03:09;20.67;;;7.60;;
69008;SDS011;56065;52.472;13.380;2022-11-27T02:05:35;20.10;;;6.93;;
69008;SDS011;56065;52.472;13.380;2022-11-27T02:08:02;27.07;;;8.13;;
69008;SDS011;56065;52.472;13.380;2022-11-27T02:10:37;22.08;;;7.25;;
69008;SDS011;56065;52.472;13.380;2022-11-27T02:13:11;28.15;;;8.30;;
69008;SDS011;56065;52.472;13.380;2022-11-27T02:15:50;20.73;;;7.22;;
69008;SDS011;56065;52.472;13.380;2022-11-27T02:19:06;19.40;;;7.33;;
69008;SDS011;56065;52.472;13.380;2022-11-27T02:21:16;22.58;;;8.18;;
69008;SDS011;56065;52.472;13.380;2022-11-27T02:29:34;19.98;;;7.78;;
69008;SDS011;56065;52.472;13.380;2022-11-27T02:32:06;21.20;;;7.53;;
69008;SDS011;56065;52.472;13.380;2022-11-27T02:34:54;21.42;;;7.20;;
69008;SDS011;56065;52.472;13.380;2022-11-27T02:40:29;18.83;;;7.03;;
69008;SDS011;56065;52.472;13.380;2022-11-27T02:43:01;27.73;;;8.68;;
69008;SDS011;56065;52.472;13.380;2022-11-27T02:45:37;22.57;;;7.93;;
69008;SDS011;56065;52.472;13.380;2022-11-27T02:48:05;19.52;;;8.20;;
69008;SDS011;56065;52.472;13.380;2022-11-27T02:50:33;27.73;;;8.32;;
69008;SDS011;56065;52.472;13.380;2022-11-27T02:53:02;25.27;;;9.02;;
69008;SDS011;56065;52.472;13.380;2022-11-27T02:55:32;29.27;;;9.15;;
69008;SDS011;56065;52.472;13.380;2022-11-27T02:58:00;21.70;;;7.77;;
69008;SDS011;56065;52.472;13.380;2022-11-27T03:00:28;24.15;;;7.63;;
69008;SDS011;56065;52.472;13.380;2022-11-27T03:02:55;21.23;;;7.45;;
69008;SDS011;56065;52.472;13.380;2022-11-27T03:05:26;23.02;;;8.80;;
69008;SDS011;56065;52.472;13.380;2022-11-27T03:07:59;24.95;;;8.25;;
69008;SDS011;56065;52.472;13.380;2022-11-27T03:10:30;22.67;;;8.10;;
69008;SDS011;56065;52.472;13.380;2022-11-27T03:13:00;23.35;;;9.07;;
69008;SDS011;56065;52.472;13.380;2022-11-27T03:15:28;24.23;;;9.18;;
69008;SDS011;56065;52.472;13.380;2022-11-27T03:18:16;20.58;;;7.82;;
69008;SDS011;56065;52.472;13.380;2022-11-27T03:20:48;24.95;;;8.50;;
69008;SDS011;56065;52.472;13.380;2022-11-27T03:23:18;25.93;;;9.33;;
69008;SDS011;56065;52.472;13.380;2022-11-27T03:25:44;26.77;;;9.57;;
69008;SDS011;56065;52.472;13.380;2022-11-27T03:28:09;22.13;;;8.45;;
69008;SDS011;56065;52.472;13.380;2022-11-27T03:30:38;26.63;;;8.53;;
69008;SDS011;56065;52.472;13.380;2022-11-27T03:33:04;22.67;;;8.52;;
69008;SDS011;56065;52.472;13.380;2022-11-27T03:35:29;18.83;;;8.03;;
69008;SDS011;56065;52.472;13.380;2022-11-27T03:37:56;25.42;;;9.40;;
69008;SDS011;56065;52.472;13.380;2022-11-27T03:40:23;24.98;;;9.05;;
69008;SDS011;56065;52.472;13.380;2022-11-27T03:43:17;22.13;;;9.07;;
69008;SDS011;56065;52.472;13.380;2022-11-27T03:45:55;27.65;;;9.45;;
69008;SDS011;56065;52.472;13.380;2022-11-27T03:51:03;25.13;;;9.95;;
69008;SDS011;56065;52.472;13.380;2022-11-27T03:53:51;26.80;;;10.07;;
69008;SDS011;56065;52.472;13.380;2022-11-27T03:56:54;21.40;;;8.93;;
69008;SDS011;56065;52.472;13.380;2022-11-27T03:59:29;19.42;;;8.65;;
69008;SDS011;56065;52.472;13.380;2022-11-27T04:01:58;22.55;;;8.73;;
69008;SDS011;56065;52.472;13.380;2022-11-27T04:04:23;22.77;;;8.73;;
69008;SDS011;56065;52.472;13.380;2022-11-27T04:06:49;19.83;;;8.10;;
69008;SDS011;56065;52.472;13.380;2022-11-27T04:09:14;21.73;;;10.50;;
69008;SDS011;56065;52.472;13.380;2022-11-27T04:11:39;22.67;;;8.90;;
69008;SDS011;56065;52.472;13.380;2022-11-27T04:14:05;22.60;;;10.03;;
69008;SDS011;56065;52.472;13.380;2022-11-27T04:16:30;21.60;;;8.90;;
69008;SDS011;56065;52.472;13.380;2022-11-27T04:18:56;24.10;;;9.10;;
69008;SDS011;56065;52.472;13.380;2022-11-27T04:21:21;21.30;;;8.67;;
69008;SDS011;56065;52.472;13.380;2022-11-27T04:23:46;24.00;;;8.93;;
69008;SDS011;56065;52.472;13.380;2022-11-27T04:26:12;23.20;;;8.43;;
69008;SDS011;56065;52.472;13.380;2022-11-27T04:28:37;22.70;;;8.70;;
69008;SDS011;56065;52.472;13.380;2022-11-27T04:31:03;26.48;;;9.38;;
69008;SDS011;56065;52.472;13.380;2022-11-27T04:33:28;21.27;;;8.17;;
69008;SDS011;56065;52.472;13.380;2022-11-27T04:35:54;21.88;;;8.38;;
69008;SDS011;56065;52.472;13.380;2022-11-27T04:38:20;23.17;;;8.50;;
69008;SDS011;56065;52.472;13.380;2022-11-27T04:40:46;21.17;;;8.75;;
69008;SDS011;56065;52.472;13.380;2022-11-27T04:43:11;22.90;;;8.93;;
69008;SDS011;56065;52.472;13.380;2022-11-27T04:45:37;25.60;;;8.43;;
69008;SDS011;56065;52.472;13.380;2022-11-27T04:48:02;22.57;;;8.63;;
69008;SDS011;56065;52.472;13.380;2022-11-27T04:50:28;22.67;;;8.93;;
69008;SDS011;56065;52.472;13.380;2022-11-27T04:52:54;19.45;;;8.10;;
69008;SDS011;56065;52.472;13.380;2022-11-27T04:55:19;18.90;;;8.57;;
69008;SDS011;56065;52.472;13.380;2022-11-27T04:57:45;28.63;;;8.97;;
69008;SDS011;56065;52.472;13.380;2022-11-27T05:00:10;20.20;;;8.43;;
69008;SDS011;56065;52.472;13.380;2022-11-27T05:02:36;25.10;;;9.10;;
69008;SDS011;56065;52.472;13.380;2022-11-27T05:05:02;26.07;;;9.70;;
69008;SDS011;56065;52.472;13.380;2022-11-27T05:07:27;21.52;;;8.57;;
69008;SDS011;56065;52.472;13.380;2022-11-27T05:09:53;20.43;;;8.60;;
69008;SDS011;56065;52.472;13.380;2022-11-27T05:12:18;23.50;;;9.33;;
69008;SDS011;56065;52.472;13.380;2022-11-27T05:14:43;22.70;;;8.63;;
69008;SDS011;56065;52.472;13.380;2022-11-27T05:17:09;23.47;;;9.43;;
69008;SDS011;56065;52.472;13.380;2022-11-27T05:19:34;24.60;;;9.43;;
69008;SDS011;56065;52.472;13.380;2022-11-27T05:22:00;21.63;;;8.80;;
69008;SDS011;56065;52.472;13.380;2022-11-27T05:24:26;22.97;;;8.53;;
69008;SDS011;56065;52.472;13.380;2022-11-27T05:26:52;26.33;;;8.40;;
69008;SDS011;56065;52.472;13.380;2022-11-27T05:29:19;23.73;;;8.57;;
69008;SDS011;56065;52.472;13.380;2022-11-27T05:31:45;25.52;;;8.35;;
69008;SDS011;56065;52.472;13.380;2022-11-27T05:34:10;23.33;;;8.73;;
69008;SDS011;56065;52.472;13.380;2022-11-27T05:36:36;22.35;;;8.45;;
69008;SDS011;56065;52.472;13.380;2022-11-27T05:39:02;28.03;;;9.53;;
69008;SDS011;56065;52.472;13.380;2022-11-27T05:41:33;20.50;;;7.80;;
69008;SDS011;56065;52.472;13.380;2022-11-27T05:43:59;24.48;;;8.52;;
69008;SDS011;56065;52.472;13.380;2022-11-27T05:46:25;24.07;;;8.97;;
69008;SDS011;56065;52.472;13.380;2022-11-27T05:48:50;22.20;;;8.67;;
69008;SDS011;56065;52.472;13.380;2022-11-27T05:51:16;24.17;;;9.27;;
69008;SDS011;56065;52.472;13.380;2022-11-27T05:53:42;21.73;;;8.45;;
69008;SDS011;56065;52.472;13.380;2022-11-27T05:56:08;26.60;;;8.87;;
69008;SDS011;56065;52.472;13.380;2022-11-27T05:58:36;25.50;;;9.68;;
69008;SDS011;56065;52.472;13.380;2022-11-27T06:01:02;20.17;;;8.60;;
69008;SDS011;56065;52.472;13.380;2022-11-27T06:03:28;27.85;;;9.75;;
69008;SDS011;56065;52.472;13.380;2022-11-27T06:05:54;27.10;;;10.47;;
69008;SDS011;56065;52.472;13.380;2022-11-27T06:08:19;25.83;;;9.33;;
69008;SDS011;56065;52.472;13.380;2022-11-27T06:10:45;24.75;;;9.82;;
69008;SDS011;56065;52.472;13.380;2022-11-27T06:13:11;26.27;;;10.27;;
69008;SDS011;56065;52.472;13.380;2022-11-27T06:15:37;23.27;;;9.07;;
69008;SDS011;56065;52.472;13.380;2022-11-27T06:18:03;26.80;;;10.13;;
69008;SDS011;56065;52.472;13.380;2022-11-27T06:20:28;20.80;;;9.27;;
69008;SDS011;56065;52.472;13.380;2022-11-27T06:22:54;30.13;;;8.53;;
69008;SDS011;56065;52.472;13.380;2022-11-27T06:25:20;22.80;;;8.35;;
69008;SDS011;56065;52.472;13.380;2022-11-27T06:27:46;25.27;;;8.95;;
69008;SDS011;56065;52.472;13.380;2022-11-27T06:30:11;20.17;;;8.23;;
69008;SDS011;56065;52.472;13.380;2022-11-27T06:32:37;20.57;;;7.87;;
69008;SDS011;56065;52.472;13.380;2022-11-27T06:35:02;26.30;;;9.67;;
69008;SDS011;56065;52.472;13.380;2022-11-27T06:37:29;25.25;;;8.88;;
69008;SDS011;56065;52.472;13.380;2022-11-27T06:39:54;20.88;;;8.35;;
69008;SDS011;56065;52.472;13.380;2022-11-27T06:42:19;22.43;;;9.63;;
69008;SDS011;56065;52.472;13.380;2022-11-27T06:44:45;28.57;;;9.50;;
69008;SDS011;56065;52.472;13.380;2022-11-27T06:47:11;24.10;;;8.93;;
69008;SDS011;56065;52.472;13.380;2022-11-27T06:49:36;24.87;;;9.07;;
69008;SDS011;56065;52.472;13.380;2022-11-27T06:52:01;23.83;;;8.30;;
69008;SDS011;56065;52.472;13.380;2022-11-27T06:54:27;24.07;;;8.47;;
69008;SDS011;56065;52.472;13.380;2022-11-27T06:56:52;24.47;;;9.50;;
69008;SDS011;56065;52.472;13.380;2022-11-27T06:59:17;27.58;;;9.18;;
69008;SDS011;56065;52.472;13.380;2022-11-27T07:01:44;23.90;;;9.33;;
69008;SDS011;56065;52.472;13.380;2022-11-27T07:04:11;25.27;;;9.15;;
69008;SDS011;56065;52.472;13.380;2022-11-27T07:06:38;25.80;;;9.83;;
69008;SDS011;56065;52.472;13.380;2022-11-27T07:09:04;25.33;;;8.98;;
69008;SDS011;56065;52.472;13.380;2022-11-27T07:11:30;20.38;;;7.85;;
69008;SDS011;56065;52.472;13.380;2022-11-27T07:13:57;20.80;;;7.93;;
69008;SDS011;56065;52.472;13.380;2022-11-27T07:16:25;26.77;;;9.80;;
69008;SDS011;56065;52.472;13.380;2022-11-27T07:18:53;20.17;;;8.53;;
69008;SDS011;56065;52.472;13.380;2022-11-27T07:21:20;24.33;;;9.45;;
69008;SDS011;56065;52.472;13.380;2022-11-27T07:23:45;27.75;;;8.88;;
69008;SDS011;56065;52.472;13.380;2022-11-27T07:26:12;27.53;;;9.07;;
69008;SDS011;56065;52.472;13.380;2022-11-27T07:28:39;22.38;;;9.35;;
69008;SDS011;56065;52.472;13.380;2022-11-27T07:31:08;24.92;;;9.13;;
69008;SDS011;56065;52.472;13.380;2022-11-27T07:33:33;25.67;;;11.20;;
69008;SDS011;56065;52.472;13.380;2022-11-27T07:36:00;24.87;;;9.23;;
69008;SDS011;56065;52.472;13.380;2022-11-27T07:38:28;21.40;;;8.02;;
69008;SDS011;56065;52.472;13.380;2022-11-27T07:40:54;28.00;;;9.47;;
69008;SDS011;56065;52.472;13.380;2022-11-27T07:43:19;21.20;;;9.15;;
69008;SDS011;56065;52.472;13.380;2022-11-27T07:45:44;29.17;;;9.57;;
69008;SDS011;56065;52.472;13.380;2022-11-27T07:48:10;25.63;;;8.07;;
69008;SDS011;56065;52.472;13.380;2022-11-27T07:50:35;21.57;;;8.97;;
69008;SDS011;56065;52.472;13.380;2022-11-27T07:53:00;22.30;;;9.13;;
69008;SDS011;56065;52.472;13.380;2022-11-27T07:55:26;21.93;;;8.53;;
69008;SDS011;56065;52.472;13.380;2022-11-27T07:57:51;20.42;;;7.88;;
69008;SDS011;56065;52.472;13.380;2022-11-27T08:00:17;21.53;;;8.23;;
69008;SDS011;56065;52.472;13.380;2022-11-27T08:02:42;18.40;;;7.37;;
69008;SDS011;56065;52.472;13.380;2022-11-27T08:05:08;20.67;;;8.60;;
69008;SDS011;56065;52.472;13.380;2022-11-27T08:07:34;18.95;;;7.10;;
69008;SDS011;56065;52.472;13.380;2022-11-27T08:09:59;19.70;;;7.47;;
69008;SDS011;56065;52.472;13.380;2022-11-27T08:12:25;20.53;;;7.97;;
69008;SDS011;56065;52.472;13.380;2022-11-27T08:14:50;22.35;;;7.13;;
69008;SDS011;56065;52.472;13.380;2022-11-27T08:17:16;21.83;;;9.10;;
69008;SDS011;56065;52.472;13.380;2022-11-27T08:19:41;17.52;;;7.97;;
69008;SDS011;56065;52.472;13.380;2022-11-27T08:22:13;21.13;;;8.30;;
69008;SDS011;56065;52.472;13.380;2022-11-27T08:24:40;19.58;;;7.78;;
69008;SDS011;56065;52.472;13.380;2022-11-27T08:27:09;21.10;;;7.53;;
69008;SDS011;56065;52.472;13.380;2022-11-27T08:29:35;20.80;;;8.07;;
69008;SDS011;56065;52.472;13.380;2022-11-27T08:32:00;16.35;;;7.40;;
69008;SDS011;56065;52.472;13.380;2022-11-27T08:34:26;19.73;;;7.77;;
69008;SDS011;56065;52.472;13.380;2022-11-27T08:36:51;21.33;;;8.73;;
69008;SDS011;56065;52.472;13.380;2022-11-27T08:39:17;18.37;;;8.40;;
69008;SDS011;56065;52.472;13.380;2022-11-27T08:41:42;17.10;;;7.43;;
69008;SDS011;56065;52.472;13.380;2022-11-27T08:44:08;17.98;;;7.13;;
69008;SDS011;56065;52.472;13.380;2022-11-27T08:46:33;15.73;;;7.03;;
69008;SDS011;56065;52.472;13.380;2022-11-27T08:48:59;18.90;;;8.13;;
69008;SDS011;56065;52.472;13.380;2022-11-27T08:51:25;16.07;;;7.43;;
69008;SDS011;56065;52.472;13.380;2022-11-27T08:53:51;16.08;;;6.45;;
69008;SDS011;56065;52.472;13.380;2022-11-27T08:56:18;15.53;;;6.73;;
69008;SDS011;56065;52.472;13.380;2022-11-27T08:58:47;16.00;;;6.78;;
69008;SDS011;56065;52.472;13.380;2022-11-27T09:01:23;15.43;;;6.37;;
69008;SDS011;56065;52.472;13.380;2022-11-27T09:03:50;16.73;;;7.07;;
69008;SDS011;56065;52.472;13.380;2022-11-27T09:06:18;13.93;;;6.47;;
69008;SDS011;56065;52.472;13.380;2022-11-27T09:08:54;14.95;;;6.82;;
69008;SDS011;56065;52.472;13.380;2022-11-27T09:11:21;16.15;;;6.50;;
69008;SDS011;56065;52.472;13.380;2022-11-27T09:13:46;15.03;;;6.47;;
69008;SDS011;56065;52.472;13.380;2022-11-27T09:16:14;15.10;;;6.10;;
69008;SDS011;56065;52.472;13.380;2022-11-27T09:18:45;15.37;;;7.07;;
69008;SDS011;56065;52.472;13.380;2022-11-27T09:21:12;16.58;;;7.05;;
69008;SDS011;56065;52.472;13.380;2022-11-27T09:23:39;16.20;;;7.95;;
69008;SDS011;56065;52.472;13.380;2022-11-27T09:26:06;14.87;;;6.40;;
69008;SDS011;56065;52.472;13.380;2022-11-27T09:28:34;17.27;;;7.10;;
69008;SDS011;56065;52.472;13.380;2022-11-27T09:31:01;15.45;;;6.03;;
69008;SDS011;56065;52.472;13.380;2022-11-27T09:33:29;14.52;;;6.75;;
69008;SDS011;56065;52.472;13.380;2022-11-27T09:35:55;16.60;;;6.50;;
69008;SDS011;56065;52.472;13.380;2022-11-27T09:38:21;15.60;;;6.73;;
69008;SDS011;56065;52.472;13.380;2022-11-27T09:40:51;16.58;;;7.43;;
69008;SDS011;56065;52.472;13.380;2022-11-27T09:43:22;14.10;;;6.22;;
69008;SDS011;56065;52.472;13.380;2022-11-27T09:45:56;14.33;;;6.07;;
69008;SDS011;56065;52.472;13.380;2022-11-27T09:48:39;16.40;;;7.45;;
69008;SDS011;56065;52.472;13.380;2022-11-27T09:51:10;14.02;;;7.18;;
69008;SDS011;56065;52.472;13.380;2022-11-27T09:53:48;17.10;;;7.18;;
69008;SDS011;56065;52.472;13.380;2022-11-27T09:56:20;14.40;;;6.88;;
69008;SDS011;56065;52.472;13.380;2022-11-27T09:58:46;15.17;;;6.93;;
69008;SDS011;56065;52.472;13.380;2022-11-27T10:01:29;14.05;;;6.10;;
69008;SDS011;56065;52.472;13.380;2022-11-27T10:03:56;13.38;;;6.55;;
69008;SDS011;56065;52.472;13.380;2022-11-27T10:06:34;15.90;;;7.40;;
69008;SDS011;56065;52.472;13.380;2022-11-27T10:14:41;15.88;;;7.28;;
69008;SDS011;56065;52.472;13.380;2022-11-27T10:22:12;17.50;;;7.60;;
69008;SDS011;56065;52.472;13.380;2022-11-27T10:25:09;15.20;;;5.97;;
69008;SDS011;56065;52.472;13.380;2022-11-27T10:27:40;14.95;;;6.30;;
69008;SDS011;56065;52.472;13.380;2022-11-27T10:30:14;13.77;;;5.97;;
69008;SDS011;56065;52.472;13.380;2022-11-27T10:32:41;13.95;;;6.40;;
69008;SDS011;56065;52.472;13.380;2022-11-27T10:35:12;16.65;;;6.90;;
69008;SDS011;56065;52.472;13.380;2022-11-27T10:37:42;16.30;;;6.60;;
69008;SDS011;56065;52.472;13.380;2022-11-27T10:48:09;16.17;;;7.35;;
69008;SDS011;56065;52.472;13.380;2022-11-27T10:50:35;14.75;;;6.70;;
69008;SDS011;56065;52.472;13.380;2022-11-27T10:53:02;15.10;;;7.03;;
69008;SDS011;56065;52.472;13.380;2022-11-27T10:55:36;14.93;;;6.90;;
69008;SDS011;56065;52.472;13.380;2022-11-27T11:01:24;13.93;;;6.57;;
69008;SDS011;56065;52.472;13.380;2022-11-27T11:04:08;16.10;;;6.32;;
69008;SDS011;56065;52.472;13.380;2022-11-27T11:06:44;13.35;;;6.65;;
69008;SDS011;56065;52.472;13.380;2022-11-27T11:11:41;13.43;;;6.78;;
69008;SDS011;56065;52.472;13.380;2022-11-27T11:14:16;15.67;;;6.57;;
69008;SDS011;56065;52.472;13.380;2022-11-27T11:16:43;12.23;;;6.75;;
69008;SDS011;56065;52.472;13.380;2022-11-27T11:19:28;12.65;;;6.07;;
69008;SDS011;56065;52.472;13.380;2022-11-27T11:21:55;13.57;;;6.43;;
69008;SDS011;56065;52.472;13.380;2022-11-27T11:26:51;15.93;;;7.13;;
69008;SDS011;56065;52.472;13.380;2022-11-27T11:32:02;15.73;;;6.85;;
69008;SDS011;56065;52.472;13.380;2022-11-27T11:34:50;13.70;;;7.33;;
69008;SDS011;56065;52.472;13.380;2022-11-27T11:37:21;18.27;;;6.82;;
69008;SDS011;56065;52.472;13.380;2022-11-27T11:40:06;13.18;;;6.57;;
69008;SDS011;56065;52.472;13.380;2022-11-27T11:42:49;16.58;;;6.57;;
69008;SDS011;56065;52.472;13.380;2022-11-27T11:45:21;15.60;;;6.88;;
69008;SDS011;56065;52.472;13.380;2022-11-27T11:47:49;13.20;;;6.50;;
69008;SDS011;56065;52.472;13.380;2022-11-27T11:59:14;15.35;;;7.00;;
69008;SDS011;56065;52.472;13.380;2022-11-27T12:04:27;17.05;;;6.93;;
69008;SDS011;56065;52.472;13.380;2022-11-27T12:10:45;13.43;;;6.57;;
69008;SDS011;56065;52.472;13.380;2022-11-27T12:30:20;14.37;;;6.77;;
69008;SDS011;56065;52.472;13.380;2022-11-27T12:32:51;13.98;;;6.50;;
69008;SDS011;56065;52.472;13.380;2022-11-27T12:41:21;12.82;;;5.80;;
69008;SDS011;56065;52.472;13.380;2022-11-27T12:43:51;17.40;;;6.57;;
69008;SDS011;56065;52.472;13.380;2022-11-27T12:46:25;14.35;;;6.00;;
69008;SDS011;56065;52.472;13.380;2022-11-27T12:49:14;14.70;;;6.30;;
69008;SDS011;56065;52.472;13.380;2022-11-27T12:54:41;14.38;;;6.25;;
69008;SDS011;56065;52.472;13.380;2022-11-27T12:57:16;13.87;;;6.50;;
69008;SDS011;56065;52.472;13.380;2022-11-27T12:59:45;14.07;;;5.70;;
69008;SDS011;56065;52.472;13.380;2022-11-27T13:05:14;15.07;;;6.90;;
69008;SDS011;56065;52.472;13.380;2022-11-27T13:13:06;13.07;;;6.18;;
69008;SDS011;56065;52.472;13.380;2022-11-27T13:15:42;15.07;;;5.95;;
69008;SDS011;56065;52.472;13.380;2022-11-27T13:18:29;16.70;;;5.65;;
69008;SDS011;56065;52.472;13.380;2022-11-27T13:21:00;13.20;;;5.20;;
69008;SDS011;56065;52.472;13.380;2022-11-27T13:23:31;13.50;;;5.53;;
69008;SDS011;56065;52.472;13.380;2022-11-27T13:25:57;11.23;;;5.53;;
69008;SDS011;56065;52.472;13.380;2022-11-27T13:28:38;14.85;;;6.30;;
69008;SDS011;56065;52.472;13.380;2022-11-27T13:31:07;15.77;;;6.47;;
69008;SDS011;56065;52.472;13.380;2022-11-27T13:33:48;12.45;;;5.70;;
69008;SDS011;56065;52.472;13.380;2022-11-27T13:36:19;13.93;;;6.50;;
69008;SDS011;56065;52.472;13.380;2022-11-27T13:38:51;13.57;;;6.40;;
69008;SDS011;56065;52.472;13.380;2022-11-27T13:41:29;12.73;;;5.25;;
69008;SDS011;56065;52.472;13.380;2022-11-27T13:43:57;12.80;;;6.03;;
69008;SDS011;56065;52.472;13.380;2022-11-27T13:46:24;11.90;;;5.20;;
69008;SDS011;56065;52.472;13.380;2022-11-27T13:49:02;14.65;;;5.57;;
69008;SDS011;56065;52.472;13.380;2022-11-27T13:51:36;16.67;;;5.68;;
69008;SDS011;56065;52.472;13.380;2022-11-27T13:54:10;12.93;;;5.13;;
69008;SDS011;56065;52.472;13.380;2022-11-27T13:56:43;14.60;;;5.68;;
69008;SDS011;56065;52.472;13.380;2022-11-27T14:01:56;11.45;;;5.68;;
69008;SDS011;56065;52.472;13.380;2022-11-27T14:04:23;15.60;;;5.07;;
69008;SDS011;56065;52.472;13.380;2022-11-27T14:06:51;14.32;;;6.07;;
69008;SDS011;56065;52.472;13.380;2022-11-27T14:09:30;15.77;;;5.40;;
69008;SDS011;56065;52.472;13.380;2022-11-27T14:12:20;12.75;;;4.88;;
69008;SDS011;56065;52.472;13.380;2022-11-27T14:17:41;13.93;;;4.90;;
69008;SDS011;56065;52.472;13.380;2022-11-27T14:24:59;13.97;;;5.27;;
69008;SDS011;56065;52.472;13.380;2022-11-27T14:27:25;13.10;;;5.00;;
69008;SDS011;56065;52.472;13.380;2022-11-27T14:29:56;12.73;;;5.00;;
69008;SDS011;56065;52.472;13.380;2022-11-27T14:32:34;14.73;;;4.65;;
69008;SDS011;56065;52.472;13.380;2022-11-27T14:35:01;15.13;;;5.00;;
69008;SDS011;56065;52.472;13.380;2022-11-27T14:37:26;14.23;;;4.60;;
69008;SDS011;56065;52.472;13.380;2022-11-27T14:39:52;12.33;;;4.97;;
69008;SDS011;56065;52.472;13.380;2022-11-27T14:42:20;13.68;;;4.85;;
69008;SDS011;56065;52.472;13.380;2022-11-27T14:44:47;11.15;;;4.65;;
69008;SDS011;56065;52.472;13.380;2022-11-27T14:47:17;13.50;;;5.57;;
69008;SDS011;56065;52.472;13.380;2022-11-27T14:49:44;13.20;;;5.97;;
69008;SDS011;56065;52.472;13.380;2022-11-27T14:52:12;12.35;;;4.90;;
69008;SDS011;56065;52.472;13.380;2022-11-27T14:54:40;15.50;;;5.68;;
69008;SDS011;56065;52.472;13.380;2022-11-27T14:57:06;11.53;;;5.03;;
69008;SDS011;56065;52.472;13.380;2022-11-27T14:59:41;13.25;;;4.85;;
69008;SDS011;56065;52.472;13.380;2022-11-27T15:04:36;19.52;;;5.53;;
69008;SDS011;56065;52.472;13.380;2022-11-27T15:07:16;13.40;;;4.95;;
69008;SDS011;56065;52.472;13.380;2022-11-27T15:09:47;14.57;;;5.43;;
69008;SDS011;56065;52.472;13.380;2022-11-27T15:14:54;14.52;;;4.75;;
69008;SDS011;56065;52.472;13.380;2022-11-27T15:17:23;12.70;;;5.03;;
69008;SDS011;56065;52.472;13.380;2022-11-27T15:19:51;13.23;;;4.95;;
69008;SDS011;56065;52.472;13.380;2022-11-27T15:22:17;16.33;;;5.47;;
69008;SDS011;56065;52.472;13.380;2022-11-27T15:24:43;13.50;;;4.87;;
69008;SDS011;56065;52.472;13.380;2022-11-27T15:27:19;14.90;;;4.93;;
69008;SDS011;56065;52.472;13.380;2022-11-27T15:32:21;11.82;;;4.65;;
69008;SDS011;56065;52.472;13.380;2022-11-27T15:34:49;13.90;;;5.18;;
69008;SDS011;56065;52.472;13.380;2022-11-27T15:37:20;13.88;;;5.15;;
69008;SDS011;56065;52.472;13.380;2022-11-27T15:39:52;14.07;;;4.72;;
69008;SDS011;56065;52.472;13.380;2022-11-27T15:42:19;15.30;;;5.40;;
69008;SDS011;56065;52.472;13.380;2022-11-27T15:44:45;14.75;;;5.30;;
69008;SDS011;56065;52.472;13.380;2022-11-27T15:47:45;14.07;;;5.03;;
69008;SDS011;56065;52.472;13.380;2022-11-27T15:50:04;13.18;;;5.32;;
69008;SDS011;56065;52.472;13.380;2022-11-27T15:52:30;16.00;;;7.05;;
69008;SDS011;56065;52.472;13.380;2022-11-27T15:54:57;21.00;;;5.60;;
69008;SDS011;56065;52.472;13.380;2022-11-27T15:57:22;14.43;;;6.07;;
69008;SDS011;56065;52.472;13.380;2022-11-27T15:59:49;15.47;;;5.80;;
69008;SDS011;56065;52.472;13.380;2022-11-27T16:02:14;14.30;;;7.05;;
69008;SDS011;56065;52.472;13.380;2022-11-27T16:04:39;15.63;;;6.33;;
69008;SDS011;56065;52.472;13.380;2022-11-27T16:07:06;21.30;;;7.37;;
69008;SDS011;56065;52.472;13.380;2022-11-27T16:09:32;13.68;;;6.43;;
69008;SDS011;56065;52.472;13.380;2022-11-27T16:11:58;15.55;;;6.93;;
69008;SDS011;56065;52.472;13.380;2022-11-27T16:14:23;17.93;;;7.00;;
69008;SDS011;56065;52.472;13.380;2022-11-27T16:16:49;14.50;;;5.70;;
69008;SDS011;56065;52.472;13.380;2022-11-27T16:19:14;15.33;;;5.70;;
69008;SDS011;56065;52.472;13.380;2022-11-27T16:21:40;15.25;;;5.85;;
69008;SDS011;56065;52.472;13.380;2022-11-27T16:24:07;15.20;;;6.53;;